createdAt,value
2017-11-10T00:00:02.768Z,90.62
2017-11-10T00:02:28.936Z,90.37
2017-11-10T00:04:55.120Z,89.27
2017-11-10T00:07:21.323Z,89.03
2017-11-10T00:09:47.483Z,88.99
2017-11-10T00:12:13.630Z,89.22
2017-11-10T00:14:39.819Z,89.24
2017-11-10T00:17:05.981Z,89.29
2017-11-10T00:19:32.155Z,89.22
2017-11-10T00:21:58.427Z,89.48
2017-11-10T00:24:24.598Z,89.87
2017-11-10T00:26:50.776Z,90.17
2017-11-10T00:29:16.985Z,90.16
2017-11-10T00:31:43.161Z,90.35
2017-11-10T00:34:09.404Z,90.27
2017-11-10T00:36:35.670Z,90.12
2017-11-10T00:39:01.907Z,90.28
2017-11-10T00:41:28.284Z,90.45
2017-11-10T00:43:54.585Z,90.00
2017-11-10T00:46:20.824Z,89.91
2017-11-10T00:48:47.050Z,89.96
2017-11-10T00:51:13.330Z,89.59
2017-11-10T00:53:39.565Z,89.12
2017-11-10T00:56:05.805Z,89.19
2017-11-10T00:58:32.074Z,89.17
2017-11-10T01:00:58.332Z,89.17
2017-11-10T01:03:24.568Z,89.06
2017-11-10T01:05:50.840Z,89.30
2017-11-10T01:08:17.046Z,89.31
2017-11-10T01:10:43.289Z,89.11
2017-11-10T01:13:09.590Z,89.02
2017-11-10T01:15:35.842Z,89.24
2017-11-10T01:18:02.088Z,89.56
2017-11-10T01:20:28.382Z,89.37
2017-11-10T01:22:54.612Z,89.61
2017-11-10T01:25:20.843Z,89.91
2017-11-10T01:27:47.091Z,89.41
2017-11-10T01:30:13.312Z,89.09
2017-11-10T01:32:39.559Z,89.23
2017-11-10T01:35:05.850Z,89.22
2017-11-10T01:37:32.080Z,89.27
2017-11-10T01:39:58.327Z,89.25
2017-11-10T01:42:24.828Z,89.25
2017-11-10T01:44:51.060Z,89.30
2017-11-10T01:47:17.292Z,89.50
2017-11-10T01:49:43.587Z,89.53
2017-11-10T01:52:09.816Z,89.68
2017-11-10T01:54:36.049Z,89.53
2017-11-10T01:57:02.341Z,89.48
2017-11-10T01:59:28.584Z,89.63
2017-11-10T02:01:54.867Z,89.83
2017-11-10T02:04:21.141Z,89.79
2017-11-10T02:06:47.372Z,89.63
2017-11-10T02:09:13.636Z,89.30
2017-11-10T02:11:40.140Z,89.21
2017-11-10T02:14:06.424Z,89.12
2017-11-10T02:16:32.685Z,88.95
2017-11-10T02:18:58.994Z,89.03
2017-11-10T02:21:25.307Z,89.11
2017-11-10T02:23:51.530Z,88.86
2017-11-10T02:26:17.822Z,88.78
2017-11-10T02:28:44.057Z,88.89
2017-11-10T02:31:10.282Z,89.18
2017-11-10T02:33:36.639Z,89.35
2017-11-10T02:36:02.894Z,89.32
2017-11-10T02:38:29.135Z,89.33
2017-11-10T02:40:55.401Z,89.35
2017-11-10T02:43:21.625Z,89.30
2017-11-10T02:45:47.858Z,89.04
2017-11-10T02:48:14.130Z,88.98
2017-11-10T02:50:40.364Z,88.95
2017-11-10T02:53:06.610Z,88.95
2017-11-10T02:55:32.891Z,88.79
2017-11-10T02:57:59.141Z,89.14
2017-11-10T03:00:25.585Z,89.02
2017-11-10T03:02:51.878Z,89.04
2017-11-10T03:05:18.117Z,89.40
2017-11-10T03:07:44.338Z,89.08
2017-11-10T03:10:10.622Z,88.76
2017-11-10T03:12:36.856Z,89.03
2017-11-10T03:15:03.112Z,89.15
2017-11-10T03:17:29.413Z,89.20
2017-11-10T03:19:55.641Z,88.99
2017-11-10T03:22:21.877Z,88.97
2017-11-10T03:24:48.161Z,88.59
2017-11-10T03:27:14.401Z,88.50
2017-11-10T03:29:40.630Z,88.64
2017-11-10T03:32:06.893Z,88.58
2017-11-10T03:34:33.135Z,88.88
2017-11-10T03:36:59.364Z,88.88
2017-11-10T03:39:25.643Z,88.69
2017-11-10T03:41:51.898Z,88.71
2017-11-10T03:44:18.146Z,88.66
2017-11-10T03:46:44.415Z,88.67
2017-11-10T03:49:10.644Z,88.58
2017-11-10T03:51:37.178Z,88.60
2017-11-10T03:54:03.463Z,88.96
2017-11-10T03:56:29.714Z,89.02
2017-11-10T03:58:56.097Z,89.55
2017-11-10T04:01:22.410Z,89.45
2017-11-10T04:03:48.647Z,89.53
2017-11-10T04:06:14.892Z,89.67
2017-11-10T04:08:41.389Z,89.53
2017-11-10T04:11:07.831Z,89.31
2017-11-10T04:13:34.485Z,89.32
2017-11-10T04:16:01.093Z,89.48
2017-11-10T04:18:27.538Z,89.49
2017-11-10T04:20:53.802Z,89.24
2017-11-10T04:23:20.045Z,89.19
2017-11-10T04:25:46.285Z,88.87
2017-11-10T04:28:12.585Z,88.90
2017-11-10T04:30:38.812Z,88.91
2017-11-10T04:33:05.034Z,88.68
2017-11-10T04:35:31.301Z,88.46
2017-11-10T04:37:57.533Z,88.59
2017-11-10T04:40:23.785Z,88.40
2017-11-10T04:42:50.069Z,88.63
2017-11-10T04:45:16.482Z,88.71
2017-11-10T04:47:42.739Z,88.51
2017-11-10T04:50:09.017Z,88.51
2017-11-10T04:52:35.581Z,88.51
2017-11-10T04:55:02.076Z,88.63
2017-11-10T04:57:28.620Z,88.49
2017-11-10T04:59:55.040Z,88.60
2017-11-10T05:02:21.483Z,88.83
2017-11-10T05:04:47.973Z,88.92
2017-11-10T05:07:14.589Z,88.91
2017-11-10T05:09:41.119Z,89.16
2017-11-10T05:12:07.663Z,88.96
2017-11-10T05:14:34.097Z,88.85
2017-11-10T05:17:00.723Z,88.59
2017-11-10T05:19:27.218Z,89.08
2017-11-10T05:21:53.591Z,88.86
2017-11-10T05:24:20.081Z,89.00
2017-11-10T05:26:46.467Z,89.20
2017-11-10T05:29:12.697Z,89.30
2017-11-10T05:31:39.153Z,89.47
2017-11-10T05:34:05.777Z,89.30
2017-11-10T05:36:32.212Z,89.04
2017-11-10T05:38:58.839Z,88.74
2017-11-10T05:41:25.100Z,88.61
2017-11-10T05:43:51.487Z,88.48
2017-11-10T05:46:18.138Z,88.67
2017-11-10T05:48:44.467Z,88.95
2017-11-10T05:51:10.716Z,89.63
2017-11-10T05:53:36.977Z,88.84
2017-11-10T05:56:03.203Z,89.73
2017-11-10T05:58:29.676Z,89.53
2017-11-10T06:00:55.940Z,87.54
2017-11-10T06:03:22.559Z,87.95
2017-11-10T06:05:48.905Z,86.69
2017-11-10T06:08:15.209Z,84.99
2017-11-10T06:10:41.469Z,84.41
2017-11-10T06:13:07.699Z,84.15
2017-11-10T06:15:33.967Z,82.76
2017-11-10T06:18:00.217Z,83.04
2017-11-10T06:20:26.565Z,82.35
2017-11-10T06:22:52.844Z,82.87
2017-11-10T06:25:19.092Z,83.27
2017-11-10T06:27:45.345Z,82.25
2017-11-10T06:30:11.647Z,82.42
2017-11-10T06:32:37.888Z,83.07
2017-11-10T06:35:04.129Z,83.97
2017-11-10T06:37:30.409Z,85.00
2017-11-10T06:39:56.653Z,84.75
2017-11-10T06:42:22.874Z,84.83
2017-11-10T06:44:49.135Z,84.14
2017-11-10T06:47:15.352Z,83.73
2017-11-10T06:49:41.618Z,83.73
2017-11-10T06:52:07.880Z,84.47
2017-11-10T06:54:34.128Z,83.12
2017-11-10T06:57:00.407Z,82.88
2017-11-10T06:59:26.689Z,82.16
2017-11-10T07:01:52.926Z,81.87
2017-11-10T07:04:19.146Z,81.93
2017-11-10T07:06:45.425Z,81.59
2017-11-10T07:09:11.666Z,82.15
2017-11-10T07:11:37.914Z,81.22
2017-11-10T07:14:04.189Z,81.09
2017-11-10T07:16:30.432Z,80.64
2017-11-10T07:18:56.656Z,80.06
2017-11-10T07:21:23.085Z,80.04
2017-11-10T07:23:49.315Z,80.33
2017-11-10T07:26:15.570Z,79.73
2017-11-10T07:28:41.859Z,79.39
2017-11-10T07:31:08.201Z,79.46
2017-11-10T07:33:34.432Z,79.23
2017-11-10T07:36:00.705Z,78.43
2017-11-10T07:38:26.963Z,78.15
2017-11-10T07:40:53.194Z,77.96
2017-11-10T07:43:19.467Z,76.95
2017-11-10T07:45:45.697Z,76.72
2017-11-10T07:48:11.934Z,75.99
2017-11-10T07:50:38.193Z,76.88
2017-11-10T07:53:04.440Z,77.38
2017-11-10T07:55:30.685Z,76.14
2017-11-10T07:57:56.970Z,75.10
2017-11-10T08:00:23.213Z,74.88
2017-11-10T08:02:49.444Z,73.65
2017-11-10T08:05:15.737Z,72.62
2017-11-10T08:07:42.026Z,72.47
2017-11-10T08:10:08.298Z,71.73
2017-11-10T08:12:34.568Z,70.34
2017-11-10T08:15:00.928Z,69.96
2017-11-10T08:17:27.154Z,69.67
2017-11-10T08:19:53.418Z,69.40
2017-11-10T08:22:19.685Z,68.34
2017-11-10T08:24:45.914Z,68.15
2017-11-10T08:27:12.194Z,68.94
2017-11-10T08:29:38.436Z,68.15
2017-11-10T08:32:04.679Z,67.80
2017-11-10T08:34:30.949Z,68.23
2017-11-10T08:36:57.172Z,67.78
2017-11-10T08:39:23.422Z,68.89
2017-11-10T08:41:49.714Z,68.58
2017-11-10T08:44:15.942Z,69.28
2017-11-10T08:46:42.172Z,68.80
2017-11-10T08:49:08.445Z,68.60
2017-11-10T08:51:34.677Z,68.17
2017-11-10T08:54:00.921Z,68.17
2017-11-10T08:56:27.215Z,68.34
2017-11-10T08:58:53.444Z,68.50
2017-11-10T09:01:19.677Z,68.86
2017-11-10T09:03:45.966Z,67.96
2017-11-10T09:06:12.187Z,68.72
2017-11-10T09:08:38.425Z,68.60
2017-11-10T09:11:04.688Z,69.46
2017-11-10T09:13:30.901Z,66.91
2017-11-10T09:15:57.300Z,67.18
2017-11-10T09:18:23.582Z,66.66
2017-11-10T09:20:49.825Z,66.20
2017-11-10T09:23:16.070Z,65.21
2017-11-10T09:25:42.372Z,66.48
2017-11-10T09:28:08.619Z,65.40
2017-11-10T09:30:34.849Z,65.36
2017-11-10T09:33:01.127Z,65.27
2017-11-10T09:35:27.371Z,63.97
2017-11-10T09:37:53.603Z,63.86
2017-11-10T09:40:19.886Z,62.69
2017-11-10T09:42:46.207Z,63.29
2017-11-10T09:45:12.453Z,61.97
2017-11-10T09:47:38.737Z,60.84
2017-11-10T09:50:05.096Z,60.90
2017-11-10T09:52:31.333Z,61.42
2017-11-10T09:54:57.606Z,60.01
2017-11-10T09:57:23.828Z,60.33
2017-11-10T09:59:50.066Z,59.72
2017-11-10T10:02:16.444Z,58.87
2017-11-10T10:04:42.688Z,58.25
2017-11-10T10:07:08.926Z,57.94
2017-11-10T10:09:35.196Z,57.38
2017-11-10T10:12:01.447Z,57.75
2017-11-10T10:14:27.694Z,57.60
2017-11-10T10:16:53.980Z,58.61
2017-11-10T10:19:20.227Z,57.84
2017-11-10T10:21:46.445Z,59.05
2017-11-10T10:24:12.729Z,60.00
2017-11-10T10:26:38.960Z,59.24
2017-11-10T10:29:05.209Z,58.81
2017-11-10T10:31:31.468Z,59.07
2017-11-10T10:33:57.708Z,58.32
2017-11-10T10:36:23.931Z,58.42
2017-11-10T10:38:50.208Z,57.83
2017-11-10T10:41:16.457Z,57.79
2017-11-10T10:43:42.683Z,56.44
2017-11-10T10:46:08.970Z,56.09
2017-11-10T10:48:35.207Z,55.92
2017-11-10T10:51:01.454Z,56.50
2017-11-10T10:53:27.780Z,55.36
2017-11-10T10:55:54.022Z,53.87
2017-11-10T10:58:20.271Z,54.56
2017-11-10T11:00:46.546Z,55.53
2017-11-10T11:03:12.787Z,54.87
2017-11-10T11:05:39.007Z,54.65
2017-11-10T11:08:05.299Z,55.01
2017-11-10T11:10:31.540Z,54.76
2017-11-10T11:12:57.786Z,53.72
2017-11-10T11:15:24.061Z,53.46
2017-11-10T11:17:50.308Z,54.50
2017-11-10T11:20:16.554Z,53.84
2017-11-10T11:22:42.841Z,52.60
2017-11-10T11:25:09.082Z,52.00
2017-11-10T11:27:35.343Z,51.02
2017-11-10T11:30:01.628Z,50.93
2017-11-10T11:32:27.852Z,51.94
2017-11-10T11:34:54.067Z,53.21
2017-11-10T11:37:20.327Z,53.77
2017-11-10T11:39:46.582Z,53.08
2017-11-10T11:42:12.849Z,55.18
2017-11-10T11:44:39.148Z,54.21
2017-11-10T11:47:05.689Z,52.69
2017-11-10T11:49:31.940Z,52.33
2017-11-10T11:51:58.231Z,52.52
2017-11-10T11:54:24.465Z,52.13
2017-11-10T11:56:50.841Z,53.57
2017-11-10T11:59:17.121Z,52.89
2017-11-10T12:01:43.362Z,51.58
2017-11-10T12:04:09.609Z,51.19
2017-11-10T12:06:35.880Z,50.60
2017-11-10T12:09:02.199Z,49.55
2017-11-10T12:11:28.430Z,49.86
2017-11-10T12:13:54.706Z,46.12
2017-11-10T12:16:21.056Z,45.47
2017-11-10T12:18:47.301Z,39.85
2017-11-10T12:21:13.573Z,39.70
2017-11-10T12:23:39.811Z,41.38
2017-11-10T12:26:06.029Z,39.77
2017-11-10T12:28:32.305Z,42.95
2017-11-10T12:30:58.523Z,44.37
2017-11-10T12:33:24.786Z,44.33
2017-11-10T12:35:51.055Z,44.00
2017-11-10T12:38:17.285Z,45.17
2017-11-10T12:40:43.517Z,44.75
2017-11-10T12:43:09.789Z,43.96
2017-11-10T12:45:36.017Z,40.75
2017-11-10T12:48:02.247Z,39.81
2017-11-10T12:50:28.513Z,39.18
2017-11-10T12:52:54.741Z,38.23
2017-11-10T12:55:20.966Z,39.86
2017-11-10T12:57:47.249Z,40.98
2017-11-10T13:00:13.496Z,42.30
2017-11-10T13:02:39.721Z,44.55
2017-11-10T13:05:06.022Z,45.19
2017-11-10T13:07:32.263Z,45.53
2017-11-10T13:09:58.500Z,45.34
2017-11-10T13:12:24.805Z,44.73
2017-11-10T13:14:51.059Z,44.05
2017-11-10T13:17:17.394Z,42.12
2017-11-10T13:19:43.830Z,40.75
2017-11-10T13:22:10.065Z,39.96
2017-11-10T13:24:36.309Z,40.68
2017-11-10T13:27:02.575Z,42.04
2017-11-10T13:29:28.831Z,42.38
2017-11-10T13:31:55.086Z,43.46
2017-11-10T13:34:21.357Z,46.04
2017-11-10T13:36:47.584Z,48.41
2017-11-10T13:39:13.821Z,50.07
2017-11-10T13:41:40.108Z,50.88
2017-11-10T13:44:06.340Z,51.63
2017-11-10T13:46:32.568Z,52.84
2017-11-10T13:48:58.851Z,54.24
2017-11-10T13:51:25.086Z,54.53
2017-11-10T13:53:51.312Z,54.76
2017-11-10T13:56:17.581Z,56.26
2017-11-10T13:58:43.808Z,57.50
2017-11-10T14:01:10.034Z,57.54
2017-11-10T14:03:36.295Z,58.14
2017-11-10T14:06:02.541Z,58.61
2017-11-10T14:08:28.781Z,58.21
2017-11-10T14:10:55.048Z,58.52
2017-11-10T14:13:21.289Z,60.40
2017-11-10T14:15:47.527Z,59.77
2017-11-10T14:18:13.804Z,60.20
2017-11-10T14:20:40.223Z,61.40
2017-11-10T14:23:06.467Z,61.23
2017-11-10T14:25:32.834Z,61.71
2017-11-10T14:27:59.068Z,63.00
2017-11-10T14:30:25.310Z,62.44
2017-11-10T14:32:51.581Z,63.61
2017-11-10T14:35:17.799Z,63.98
2017-11-10T14:37:44.168Z,64.75
2017-11-10T14:40:10.438Z,65.17
2017-11-10T14:42:36.679Z,66.11
2017-11-10T14:45:02.922Z,66.59
2017-11-10T14:47:29.206Z,66.90
2017-11-10T14:49:55.440Z,67.11
2017-11-10T14:52:21.661Z,67.54
2017-11-10T14:54:47.954Z,67.54
2017-11-10T14:57:14.182Z,67.63
2017-11-10T14:59:40.411Z,68.84
2017-11-10T15:02:06.681Z,69.39
2017-11-10T15:04:32.973Z,70.02
2017-11-10T15:06:59.226Z,70.37
2017-11-10T15:09:25.470Z,71.40
2017-11-10T15:11:52.099Z,71.77
2017-11-10T15:14:18.346Z,71.72
2017-11-10T15:16:44.730Z,71.68
2017-11-10T15:19:11.180Z,71.90
2017-11-10T15:21:37.389Z,72.33
2017-11-10T15:24:03.624Z,72.33
2017-11-10T15:26:29.907Z,73.04
2017-11-10T15:28:56.128Z,73.17
2017-11-10T15:31:22.381Z,73.37
2017-11-10T15:33:48.666Z,73.61
2017-11-10T15:36:14.916Z,74.04
2017-11-10T15:38:41.145Z,74.25
2017-11-10T15:41:07.454Z,75.12
2017-11-10T15:43:33.781Z,75.76
2017-11-10T15:46:00.024Z,76.93
2017-11-10T15:48:26.288Z,76.73
2017-11-10T15:50:52.514Z,77.62
2017-11-10T15:53:18.752Z,77.05
2017-11-10T15:55:45.064Z,78.66
2017-11-10T15:58:11.306Z,78.45
2017-11-10T16:00:37.549Z,78.37
2017-11-10T16:03:03.807Z,79.06
2017-11-10T16:05:30.025Z,81.03
2017-11-10T16:07:56.269Z,80.66
2017-11-10T16:10:22.549Z,81.55
2017-11-10T16:12:48.778Z,81.00
2017-11-10T16:15:15.007Z,81.68
2017-11-10T16:17:41.314Z,82.83
2017-11-10T16:20:07.551Z,83.79
2017-11-10T16:22:33.782Z,84.48
2017-11-10T16:25:00.059Z,83.32
2017-11-10T16:27:26.498Z,83.92
2017-11-10T16:29:52.945Z,85.42
2017-11-10T16:32:19.262Z,85.68
2017-11-10T16:34:45.509Z,85.21
2017-11-10T16:37:11.723Z,86.08
2017-11-10T16:39:37.987Z,86.61
2017-11-10T16:42:04.205Z,86.37
2017-11-10T16:44:30.414Z,87.19
2017-11-10T16:46:56.683Z,87.45
2017-11-10T16:49:22.923Z,87.91
2017-11-10T16:51:49.145Z,85.59
2017-11-10T16:54:15.476Z,84.78
2017-11-10T16:56:41.726Z,87.84
2017-11-10T16:59:07.929Z,88.26
2017-11-10T17:01:34.170Z,86.06
2017-11-10T17:04:00.383Z,85.37
2017-11-10T17:06:26.736Z,86.03
2017-11-10T17:08:53.145Z,87.66
2017-11-10T17:11:19.417Z,87.50
2017-11-10T17:13:45.672Z,85.25
2017-11-10T17:16:11.927Z,83.77
2017-11-10T17:18:38.156Z,84.31
2017-11-10T17:21:04.365Z,84.90
2017-11-10T17:23:30.597Z,84.64
2017-11-10T17:25:56.856Z,82.27
2017-11-10T17:28:23.073Z,84.35
2017-11-10T17:30:49.280Z,85.77
2017-11-10T17:33:15.568Z,82.68
2017-11-10T17:35:41.790Z,83.66
2017-11-10T17:38:08.015Z,84.18
2017-11-10T17:40:34.392Z,83.67
2017-11-10T17:43:01.028Z,84.52
2017-11-10T17:45:27.537Z,85.58
2017-11-10T17:47:54.052Z,85.33
2017-11-10T17:50:20.498Z,86.41
2017-11-10T17:52:46.955Z,85.95
2017-11-10T17:55:13.448Z,86.18
2017-11-10T17:57:40.041Z,85.30
2017-11-10T18:00:06.311Z,86.07
2017-11-10T18:02:32.909Z,84.86
2017-11-10T18:04:59.133Z,84.56
2017-11-10T18:07:25.563Z,85.50
2017-11-10T18:09:52.078Z,86.75
2017-11-10T18:12:19.238Z,86.58
2017-11-10T18:14:45.500Z,87.19
2017-11-10T18:17:11.782Z,86.52
2017-11-10T18:19:40.082Z,86.00
2017-11-10T18:22:06.318Z,85.55
2017-11-10T18:24:32.593Z,86.25
2017-11-10T18:26:58.876Z,87.02
2017-11-10T18:29:26.354Z,86.51
2017-11-10T18:31:52.664Z,87.64
2017-11-10T18:34:18.930Z,88.87
2017-11-10T18:36:45.155Z,88.34
2017-11-10T18:39:11.429Z,87.42
2017-11-10T18:41:37.735Z,87.25
2017-11-10T18:49:07.791Z,91.10
2017-11-10T18:51:34.098Z,91.08
2017-11-10T18:54:00.335Z,91.49
2017-11-10T18:56:26.621Z,91.95
2017-11-10T18:58:52.869Z,92.32
2017-11-10T19:01:19.115Z,92.14
2017-11-10T19:03:45.427Z,91.64
2017-11-10T19:06:11.689Z,92.19
2017-11-10T19:08:38.292Z,90.70
2017-11-10T19:11:04.570Z,90.72
2017-11-10T19:13:30.796Z,90.57
2017-11-10T19:15:57.037Z,90.22
2017-11-10T19:18:23.357Z,89.94
2017-11-10T19:20:49.706Z,90.45
2017-11-10T19:23:15.968Z,90.63
2017-11-10T19:25:42.281Z,90.54
2017-11-10T19:28:08.507Z,90.18
2017-11-10T19:30:34.758Z,90.03
2017-11-10T19:33:01.052Z,89.58
2017-11-10T19:35:27.316Z,89.15
2017-11-10T19:40:47.071Z,88.99
2017-11-10T19:43:13.292Z,89.55
2017-11-10T19:45:39.524Z,89.53
2017-11-10T19:48:05.810Z,88.73
2017-11-10T19:50:32.045Z,89.15
2017-11-10T19:52:58.288Z,89.47
2017-11-10T19:55:24.565Z,89.49
2017-11-10T19:57:50.805Z,90.12
2017-11-10T20:00:17.073Z,91.57
2017-11-10T20:02:43.360Z,91.18
2017-11-10T20:05:09.613Z,91.01
2017-11-10T20:07:35.845Z,90.83
2017-11-10T20:10:02.123Z,91.17
2017-11-10T20:12:28.349Z,91.23
2017-11-10T20:14:54.564Z,91.38
2017-11-10T20:17:20.850Z,91.48
2017-11-10T20:19:47.074Z,91.42
2017-11-10T20:22:13.386Z,91.04
2017-11-10T20:24:39.691Z,91.50
2017-11-10T20:27:05.924Z,92.00
2017-11-10T20:29:32.158Z,92.29
2017-11-10T20:31:58.414Z,92.39
2017-11-10T20:34:24.646Z,92.50
2017-11-10T20:36:50.937Z,92.80
2017-11-10T20:39:17.189Z,92.70
2017-11-10T20:41:43.396Z,92.74
2017-11-10T20:44:10.756Z,92.46
2017-11-10T20:46:37.002Z,92.47
2017-11-10T20:49:03.226Z,92.30
2017-11-10T20:51:29.464Z,92.24
2017-11-10T20:53:55.741Z,92.49
2017-11-10T20:56:21.964Z,93.12
2017-11-10T20:58:48.188Z,93.00
2017-11-10T21:01:14.458Z,93.02
2017-11-10T21:03:40.707Z,92.95
2017-11-10T21:06:07.015Z,92.83
2017-11-10T21:08:33.282Z,92.33
2017-11-10T21:10:59.528Z,92.82
2017-11-10T21:13:25.778Z,92.30
2017-11-10T21:15:52.048Z,92.21
2017-11-10T21:18:18.271Z,92.80
2017-11-10T21:20:44.532Z,92.99
2017-11-10T21:23:10.836Z,92.79
2017-11-10T21:25:37.083Z,92.61
2017-11-10T21:28:03.309Z,92.89
2017-11-10T21:30:29.539Z,92.96
2017-11-10T21:32:55.777Z,93.37
2017-11-10T21:35:22.005Z,93.31
2017-11-10T21:37:48.413Z,92.89
2017-11-10T21:40:14.679Z,92.49
2017-11-10T21:42:40.905Z,91.52
2017-11-10T21:45:07.170Z,91.45
2017-11-10T21:47:33.406Z,91.78
2017-11-10T21:49:59.717Z,91.70
2017-11-10T21:52:25.977Z,91.73
2017-11-10T21:54:52.205Z,91.92
2017-11-10T21:57:18.422Z,91.60
2017-11-10T21:59:44.886Z,91.69
2017-11-10T22:02:11.097Z,92.00
2017-11-10T22:04:37.326Z,92.13
2017-11-10T22:07:03.575Z,91.86
2017-11-10T22:09:29.798Z,91.67
2017-11-10T22:11:56.018Z,91.50
2017-11-10T22:14:22.284Z,92.07
2017-11-10T22:16:48.505Z,92.52
2017-11-10T22:19:14.760Z,92.95
2017-11-10T22:21:41.032Z,92.80
2017-11-10T22:24:07.317Z,92.62
2017-11-10T22:26:33.543Z,92.58
2017-11-10T22:28:59.824Z,92.90
2017-11-10T22:31:26.055Z,92.53
2017-11-10T22:33:52.287Z,92.48
2017-11-10T22:36:18.563Z,92.66
2017-11-10T22:38:44.797Z,92.75
2017-11-10T22:41:11.131Z,92.65
2017-11-10T22:43:37.408Z,92.31
2017-11-10T22:46:03.633Z,92.59
2017-11-10T22:48:29.851Z,92.84
2017-11-10T22:50:56.104Z,92.93
2017-11-10T22:53:22.329Z,93.00
2017-11-10T22:55:48.575Z,93.36
2017-11-10T22:58:14.889Z,93.25
2017-11-10T23:00:41.149Z,93.47
2017-11-10T23:03:07.407Z,93.46
2017-11-10T23:05:33.728Z,93.29
2017-11-10T23:10:32.374Z,93.47
2017-11-10T23:12:58.639Z,93.78
2017-11-10T23:15:24.858Z,93.59
2017-11-10T23:17:51.083Z,93.73
2017-11-10T23:20:17.363Z,93.77
2017-11-10T23:22:43.593Z,93.83
2017-11-10T23:25:09.849Z,94.05
2017-11-10T23:27:36.158Z,94.09
2017-11-10T23:30:02.406Z,94.29
2017-11-10T23:32:28.637Z,94.49
2017-11-10T23:34:54.889Z,94.55
2017-11-10T23:37:21.114Z,94.33
2017-11-10T23:39:47.330Z,93.99
2017-11-10T23:42:13.614Z,93.95
2017-11-10T23:44:39.888Z,93.63
2017-11-10T23:47:06.118Z,93.60
2017-11-10T23:49:32.368Z,93.71
2017-11-10T23:51:58.595Z,93.79
2017-11-10T23:54:24.812Z,93.57
2017-11-10T23:56:51.251Z,93.23
2017-11-10T23:59:17.491Z,93.16
